^^
Station Historical Data
Daily Summary for December 9, 2017 Units:  Both    English   Metric
« Previous Day
Next Day »
Daily Weekly Monthly Yearly Custom
  High: Low: Average:
Temperature: 100.6 °F /  38.1 °C 72.5 °F /  22.5 °C 83.1 °F /  28.4 °C
Dew Point: 51.6 °F /  10.9 °C 37.6 °F /  3.1 °C 47.6 °F /  8.7 °C
Humidity: 44% 12% 31%
Wind Speed: 14.1mph /  22.7km/h - 3.8mph /  6.1km/h
Wind Gust: 24.0mph /  38.6km/h - -
Wind- - South
Pressure: 29.80 in /  1009 hPa 29.64 in /  1003.6 hPa -
Precipitation: 0.00 in /  0 mm    
Historical Graphs
 
 
Tabular Data for December 9, 2017
Time Temperature Dew Point Pressure Wind Wind Speed Wind Gust Humidity Rainfall Rate (Hourly) solar Conditions
00:00 83.5 °F /  28.6 °C 50.5 °F /  10.3 °C 29.80in /  1009hPa South 2.9mph /  4.7km/h 6.0mph /  9.7km/h 32% 0.00in /  0mm 0.0 W/m2
00:10 82.8 °F /  28.2 °C 49.1 °F /  9.5 °C 29.80in /  1009hPa South 6.0mph /  9.7km/h 6.0mph /  9.7km/h 31% 0.00in /  0mm 0.0 W/m2
00:15 82.4 °F /  28 °C 49.6 °F /  9.8 °C 29.80in /  1009hPa South 4.9mph /  7.9km/h 6.0mph /  9.7km/h 32% 0.00in /  0mm 0.0 W/m2
00:20 82.2 °F /  27.9 °C 49.5 °F /  9.7 °C 29.80in /  1009hPa South 4.9mph /  7.9km/h 6.0mph /  9.7km/h 32% 0.00in /  0mm 0.0 W/m2
00:26 82.0 °F /  27.8 °C 50.2 °F /  10.1 °C 29.79in /  1008.7hPa South 4.0mph /  6.4km/h 6.0mph /  9.7km/h 33% 0.00in /  0mm 0.0 W/m2
00:40 82.0 °F /  27.8 °C 49.3 °F /  9.6 °C 29.79in /  1008.7hPa South 4.9mph /  7.9km/h 8.0mph /  12.9km/h 32% 0.00in /  0mm 0.0 W/m2
00:55 81.3 °F /  27.4 °C 49.5 °F /  9.7 °C 29.78in /  1008.4hPa South 2.9mph /  4.7km/h 5.0mph /  8km/h 33% 0.00in /  0mm 0.0 W/m2
01:00 81.3 °F /  27.4 °C 48.6 °F /  9.2 °C 29.78in /  1008.4hPa South 2.9mph /  4.7km/h 4.0mph /  6.4km/h 32% 0.00in /  0mm 0.0 W/m2
01:11 80.6 °F /  27 °C 48.9 °F /  9.4 °C 29.78in /  1008.4hPa South 2.9mph /  4.7km/h 4.0mph /  6.4km/h 33% 0.00in /  0mm 0.0 W/m2
01:26 80.2 °F /  26.8 °C 48.6 °F /  9.2 °C 29.78in /  1008.4hPa South 6.0mph /  9.7km/h 7.0mph /  11.3km/h 33% 0.00in /  0mm 0.0 W/m2
01:37 80.4 °F /  26.9 °C 48.7 °F /  9.3 °C 29.78in /  1008.4hPa South 2.9mph /  4.7km/h 8.0mph /  12.9km/h 33% 0.00in /  0mm 0.0 W/m2
01:47 79.5 °F /  26.4 °C 47.8 °F /  8.8 °C 29.78in /  1008.4hPa South 6.0mph /  9.7km/h 7.0mph /  11.3km/h 33% 0.00in /  0mm 0.0 W/m2
02:02 79.3 °F /  26.3 °C 48.6 °F /  9.2 °C 29.77in /  1008hPa South 2.9mph /  4.7km/h 5.0mph /  8km/h 34% 0.00in /  0mm 0.0 W/m2
02:07 79.2 °F /  26.2 °C 48.4 °F /  9.1 °C 29.77in /  1008hPa South 6.0mph /  9.7km/h 6.0mph /  9.7km/h 34% 0.00in /  0mm 0.0 W/m2
02:22 78.3 °F /  25.7 °C 49.1 °F /  9.5 °C 29.77in /  1008hPa South 4.0mph /  6.4km/h 5.0mph /  8km/h 36% 0.00in /  0mm 0.0 W/m2
02:27 78.1 °F /  25.6 °C 48.9 °F /  9.4 °C 29.77in /  1008hPa South 4.0mph /  6.4km/h 4.0mph /  6.4km/h 36% 0.00in /  0mm 0.0 W/m2
02:42 77.4 °F /  25.2 °C 49.1 °F /  9.5 °C 29.76in /  1007.7hPa South 2.9mph /  4.7km/h 4.0mph /  6.4km/h 37% 0.00in /  0mm 0.0 W/m2
02:48 77.2 °F /  25.1 °C 48.9 °F /  9.4 °C 29.76in /  1007.7hPa South 2.9mph /  4.7km/h 4.0mph /  6.4km/h 37% 0.00in /  0mm 0.0 W/m2
02:53 76.8 °F /  24.9 °C 48.6 °F /  9.2 °C 29.76in /  1007.7hPa Calm     37% 0.00in /  0mm 0.0 W/m2
02:58 76.6 °F /  24.8 °C 48.4 °F /  9.1 °C 29.76in /  1007.7hPa Calm     37% 0.00in /  0mm 0.0 W/m2
03:03 76.3 °F /  24.6 °C 48.0 °F /  8.9 °C 29.76in /  1007.7hPa Calm     37% 0.00in /  0mm 0.0 W/m2
03:09 76.1 °F /  24.5 °C 48.0 °F /  8.9 °C 29.76in /  1007.7hPa Calm     37% 0.00in /  0mm 0.0 W/m2
03:14 75.9 °F /  24.4 °C 48.6 °F /  9.2 °C 29.76in /  1007.7hPa Calm     38% 0.00in /  0mm 0.0 W/m2
03:35 75.4 °F /  24.1 °C 48.7 °F /  9.3 °C 29.75in /  1007.3hPa Calm     39% 0.00in /  0mm 0.0 W/m2
03:41 75.0 °F /  23.9 °C 48.4 °F /  9.1 °C 29.75in /  1007.3hPa Calm     39% 0.00in /  0mm 0.0 W/m2
03:46 75.0 °F /  23.9 °C 48.4 °F /  9.1 °C 29.75in /  1007.3hPa Calm     39% 0.00in /  0mm 0.0 W/m2
03:56 74.7 °F /  23.7 °C 48.0 °F /  8.9 °C 29.75in /  1007.3hPa Calm     39% 0.00in /  0mm 0.0 W/m2
04:01 74.5 °F /  23.6 °C 48.6 °F /  9.2 °C 29.75in /  1007.3hPa Calm     40% 0.00in /  0mm 0.0 W/m2
04:06 74.5 °F /  23.6 °C 48.6 °F /  9.2 °C 29.75in /  1007.3hPa Calm     40% 0.00in /  0mm 0.0 W/m2
04:11 74.1 °F /  23.4 °C 48.2 °F /  9 °C 29.75in /  1007.3hPa Calm     40% 0.00in /  0mm 0.0 W/m2
04:16 74.1 °F /  23.4 °C 48.9 °F /  9.4 °C 29.75in /  1007.3hPa Calm     41% 0.00in /  0mm 0.0 W/m2
04:21 74.1 °F /  23.4 °C 48.2 °F /  9 °C 29.75in /  1007.3hPa Calm     40% 0.00in /  0mm 0.0 W/m2
04:32 74.1 °F /  23.4 °C 48.9 °F /  9.4 °C 29.75in /  1007.3hPa Calm     41% 0.00in /  0mm 0.0 W/m2
04:37 73.9 °F /  23.3 °C 48.7 °F /  9.3 °C 29.75in /  1007.3hPa Calm     41% 0.00in /  0mm 0.0 W/m2
04:42 73.8 °F /  23.2 °C 48.6 °F /  9.2 °C 29.75in /  1007.3hPa Calm     41% 0.00in /  0mm 0.0 W/m2
04:47 73.8 °F /  23.2 °C 49.3 °F /  9.6 °C 29.75in /  1007.3hPa Calm     42% 0.00in /  0mm 0.0 W/m2
04:53 73.9 °F /  23.3 °C 49.5 °F /  9.7 °C 29.75in /  1007.3hPa Calm     42% 0.00in /  0mm 0.0 W/m2
05:19 74.7 °F /  23.7 °C 49.5 °F /  9.7 °C 29.76in /  1007.7hPa Calm     41% 0.00in /  0mm 0.0 W/m2
05:45 73.8 °F /  23.2 °C 49.3 °F /  9.6 °C 29.75in /  1007.3hPa Calm     42% 0.00in /  0mm 0.0 W/m2
05:51 73.4 °F /  23 °C 48.9 °F /  9.4 °C 29.75in /  1007.3hPa Calm     42% 0.00in /  0mm 5.0 W/m2
05:56 73.0 °F /  22.8 °C 48.6 °F /  9.2 °C 29.76in /  1007.7hPa Calm     42% 0.00in /  0mm 7.0 W/m2
06:06 72.5 °F /  22.5 °C 49.3 °F /  9.6 °C 29.76in /  1007.7hPa Calm     44% 0.00in /  0mm 16.0 W/m2
06:22 73.2 °F /  22.9 °C 50.0 °F /  10 °C 29.76in /  1007.7hPa Calm     44% 0.00in /  0mm 46.0 W/m2
06:27 73.2 °F /  22.9 °C 50.0 °F /  10 °C 29.76in /  1007.7hPa Calm     44% 0.00in /  0mm 46.0 W/m2
06:42 75.4 °F /  24.1 °C 50.7 °F /  10.4 °C 29.76in /  1007.7hPa Calm     42% 0.00in /  0mm 105.0 W/m2
06:47 75.9 °F /  24.4 °C 50.5 °F /  10.3 °C 29.77in /  1008hPa Calm     41% 0.00in /  0mm 128.0 W/m2
06:53 76.5 °F /  24.7 °C 50.4 °F /  10.2 °C 29.77in /  1008hPa Calm     40% 0.00in /  0mm 149.0 W/m2
06:58 77.2 °F /  25.1 °C 50.4 °F /  10.2 °C 29.77in /  1008hPa Calm     39% 0.00in /  0mm 165.0 W/m2
07:09 78.4 °F /  25.8 °C 50.7 °F /  10.4 °C 29.76in /  1007.7hPa Calm     38% 0.00in /  0mm 211.0 W/m2
07:18 79.3 °F /  26.3 °C 49.3 °F /  9.6 °C 29.76in /  1007.7hPa Calm     35% 0.00in /  0mm 246.0 W/m2
07:28 79.7 °F /  26.5 °C 49.6 °F /  9.8 °C 29.76in /  1007.7hPa Calm     35% 0.00in /  0mm 262.0 W/m2
07:37 80.2 °F /  26.8 °C 49.3 °F /  9.6 °C 29.76in /  1007.7hPa Calm     34% 0.00in /  0mm 297.0 W/m2
07:46 81.0 °F /  27.2 °C 50.0 °F /  10 °C 29.76in /  1007.7hPa South 6.9mph /  11.1km/h 7.0mph /  11.3km/h 34% 0.00in /  0mm 332.0 W/m2
09:10 85.8 °F /  29.9 °C 48.9 °F /  9.4 °C 29.76in /  1007.7hPa South 8.9mph /  14.3km/h 9.0mph /  14.5km/h 28% 0.00in /  0mm 612.0 W/m2
09:15 86.2 °F /  30.1 °C 49.3 °F /  9.6 °C 29.76in /  1007.7hPa South 8.1mph /  13km/h 10.0mph /  16.1km/h 28% 0.00in /  0mm 628.0 W/m2
09:40 87.1 °F /  30.6 °C 48.0 °F /  8.9 °C 29.76in /  1007.7hPa South 6.9mph /  11.1km/h 9.0mph /  14.5km/h 26% 0.00in /  0mm 700.0 W/m2
09:50 87.6 °F /  30.9 °C 48.6 °F /  9.2 °C 29.76in /  1007.7hPa South 6.0mph /  9.7km/h 6.0mph /  9.7km/h 26% 0.00in /  0mm 729.0 W/m2
10:01 88.2 °F /  31.2 °C 47.8 °F /  8.8 °C 29.76in /  1007.7hPa South 4.9mph /  7.9km/h 7.0mph /  11.3km/h 25% 0.00in /  0mm 754.0 W/m2
10:16 89.4 °F /  31.9 °C 47.8 °F /  8.8 °C 29.76in /  1007.7hPa Calm     24% 0.00in /  0mm 793.0 W/m2
10:22 90.0 °F /  32.2 °C 48.4 °F /  9.1 °C 29.75in /  1007.3hPa Calm     24% 0.00in /  0mm 807.0 W/m2
10:31 90.3 °F /  32.4 °C 48.6 °F /  9.2 °C 29.75in /  1007.3hPa Calm     24% 0.00in /  0mm 828.0 W/m2
11:02 91.8 °F /  33.2 °C 47.5 °F /  8.6 °C 29.75in /  1007.3hPa Calm     22% 0.00in /  0mm 888.0 W/m2
11:14 92.1 °F /  33.4 °C 47.8 °F /  8.8 °C 29.75in /  1007.3hPa Calm     22% 0.00in /  0mm 902.0 W/m2
11:19 93.0 °F /  33.9 °C 48.6 °F /  9.2 °C 29.74in /  1007hPa Calm     22% 0.00in /  0mm 912.0 W/m2
11:39 93.7 °F /  34.3 °C 47.8 °F /  8.8 °C 29.74in /  1007hPa South 6.0mph /  9.7km/h 6.0mph /  9.7km/h 21% 0.00in /  0mm 939.0 W/m2
11:54 94.5 °F /  34.7 °C 47.1 °F /  8.4 °C 29.73in /  1006.7hPa South 0.9mph /  1.4km/h 4.0mph /  6.4km/h 20% 0.00in /  0mm 953.0 W/m2
12:04 94.6 °F /  34.8 °C 47.3 °F /  8.5 °C 29.73in /  1006.7hPa Calm   4.0mph /  6.4km/h 20% 0.00in /  0mm 960.0 W/m2
12:09 94.5 °F /  34.7 °C 47.1 °F /  8.4 °C 29.73in /  1006.7hPa Calm     20% 0.00in /  0mm 962.0 W/m2
12:19 95.4 °F /  35.2 °C 46.6 °F /  8.1 °C 29.72in /  1006.3hPa Calm   5.0mph /  8km/h 19% 0.00in /  0mm 965.0 W/m2
12:24 95.4 °F /  35.2 °C 46.6 °F /  8.1 °C 29.72in /  1006.3hPa South 8.1mph /  13km/h 8.1mph /  13km/h 19% 0.00in /  0mm 969.0 W/m2
12:35 95.7 °F /  35.4 °C 45.5 °F /  7.5 °C 29.72in /  1006.3hPa Calm   4.0mph /  6.4km/h 18% 0.00in /  0mm 972.0 W/m2
12:46 96.3 °F /  35.7 °C 45.9 °F /  7.7 °C 29.71in /  1006hPa South 0.9mph /  1.4km/h 4.0mph /  6.4km/h 18% 0.00in /  0mm 967.0 W/m2
12:52 96.4 °F /  35.8 °C 46.0 °F /  7.8 °C 29.71in /  1006hPa Calm   2.0mph /  3.2km/h 18% 0.00in /  0mm 972.0 W/m2
13:01 97.3 °F /  36.3 °C 45.3 °F /  7.4 °C 29.70in /  1005.6hPa Calm   7.0mph /  11.3km/h 17% 0.00in /  0mm 972.0 W/m2
13:05 97.3 °F /  36.3 °C 45.3 °F /  7.4 °C 29.70in /  1005.6hPa South 4.9mph /  7.9km/h 10.0mph /  16.1km/h 17% 0.00in /  0mm 974.0 W/m2
13:13 97.5 °F /  36.4 °C 45.3 °F /  7.4 °C 29.70in /  1005.6hPa Calm   5.0mph /  8km/h 17% 0.00in /  0mm 970.0 W/m2
13:46 97.3 °F /  36.3 °C 41.9 °F /  5.5 °C 29.68in /  1005hPa Calm     15% 0.00in /  0mm 951.0 W/m2
14:13 99.0 °F /  37.2 °C 41.4 °F /  5.2 °C 29.68in /  1005hPa South 4.9mph /  7.9km/h 6.0mph /  9.7km/h 14% 0.00in /  0mm 946.0 W/m2
14:27 99.1 °F /  37.3 °C 39.7 °F /  4.3 °C 29.67in /  1004.6hPa South 14.1mph /  22.7km/h 17.0mph /  27.4km/h 13% 0.00in /  0mm 905.0 W/m2
14:40 99.0 °F /  37.2 °C 37.6 °F /  3.1 °C 29.67in /  1004.6hPa South 14.1mph /  22.7km/h 17.0mph /  27.4km/h 12% 0.00in /  0mm 889.0 W/m2
15:34 100.6 °F /  38.1 °C 40.8 °F /  4.9 °C 29.65in /  1003.9hPa South 11.0mph /  17.7km/h 12.0mph /  19.3km/h 13% 0.00in /  0mm 749.0 W/m2
15:45 99.9 °F /  37.7 °C 40.3 °F /  4.6 °C 29.64in /  1003.6hPa SSW 6.9mph /  11.1km/h 13.0mph /  20.9km/h 13% 0.00in /  0mm 726.0 W/m2
15:53 100.2 °F /  37.9 °C 40.5 °F /  4.7 °C 29.64in /  1003.6hPa SW 8.9mph /  14.3km/h 17.0mph /  27.4km/h 13% 0.00in /  0mm 700.0 W/m2
20:29 87.3 °F /  30.7 °C 51.1 °F /  10.6 °C 29.67in /  1004.6hPa SSW 11.0mph /  17.7km/h 24.0mph /  38.6km/h 29% 0.00in /  0mm 0.0 W/m2
20:34 86.7 °F /  30.4 °C 51.6 °F /  10.9 °C 29.67in /  1004.6hPa SSW 14.1mph /  22.7km/h 19.0mph /  30.6km/h 30% 0.00in /  0mm 0.0 W/m2
20:49 85.6 °F /  29.8 °C 50.7 °F /  10.4 °C 29.68in /  1005hPa SSW 13.0mph /  20.9km/h 20.0mph /  32.2km/h 30% 0.00in /  0mm 0.0 W/m2
21:05 85.3 °F /  29.6 °C 50.4 °F /  10.2 °C 29.69in /  1005.3hPa South 13.0mph /  20.9km/h 18.0mph /  29km/h 30% 0.00in /  0mm 0.0 W/m2
21:19 84.4 °F /  29.1 °C 49.6 °F /  9.8 °C 29.69in /  1005.3hPa SSW 11.0mph /  17.7km/h 17.0mph /  27.4km/h 30% 0.00in /  0mm 0.0 W/m2
21:34 83.5 °F /  28.6 °C 49.6 °F /  9.8 °C 29.70in /  1005.6hPa SSW 13.0mph /  20.9km/h 18.0mph /  29km/h 31% 0.00in /  0mm 0.0 W/m2
21:43 82.9 °F /  28.3 °C 49.3 °F /  9.6 °C 29.70in /  1005.6hPa SSW 14.1mph /  22.7km/h 17.0mph /  27.4km/h 31% 0.00in /  0mm 0.0 W/m2
23:00 79.7 °F /  26.5 °C 42.8 °F /  6 °C 29.72in /  1006.3hPa SSW 12.1mph /  19.5km/h 15.0mph /  24.1km/h 27% 0.00in /  0mm 0.0 W/m2
23:10 79.3 °F /  26.3 °C 42.4 °F /  5.8 °C 29.72in /  1006.3hPa SSW 12.1mph /  19.5km/h 15.0mph /  24.1km/h 27% 0.00in /  0mm 0.0 W/m2
23:15 79.2 °F /  26.2 °C 42.3 °F /  5.7 °C 29.71in /  1006hPa SSW 14.1mph /  22.7km/h 17.0mph /  27.4km/h 27% 0.00in /  0mm 0.0 W/m2
23:26 78.8 °F /  26 °C 44.8 °F /  7.1 °C 29.72in /  1006.3hPa SSW 12.1mph /  19.5km/h 13.0mph /  20.9km/h 30% 0.00in /  0mm 0.0 W/m2
23:46 78.3 °F /  25.7 °C 41.5 °F /  5.3 °C 29.71in /  1006hPa SSW 12.1mph /  19.5km/h 14.0mph /  22.5km/h 27% 0.00in /  0mm 0.0 W/m2
23:51 78.1 °F /  25.6 °C 41.4 °F /  5.2 °C 29.71in /  1006hPa SSW 12.1mph /  19.5km/h 13.0mph /  20.9km/h 27% 0.00in /  0mm 0.0 W/m2
23:56 77.9 °F /  25.5 °C 40.3 °F /  4.6 °C 29.71in /  1006hPa SSW 12.1mph /  19.5km/h 14.0mph /  22.5km/h 26% 0.00in /  0mm 0.0 W/m2
Canyon Roadhouse, Fishriver Canyon, Namibia
Compliments of Weather Underground - 2 mb